地図

経路データ

SID SEASON NUMBER BASIN SUBBASIN NAME ISO_TIME NATURE LAT LON WMO_WIND WMO_PRES WMO_AGENCY TRACK_TYPE DIST2LAND LANDFALL IFLAG USA_AGENCY USA_ATCF_ID USA_LAT USA_LON USA_RECORD USA_STATUS USA_WIND USA_PRES USA_SSHS USA_R34_NE USA_R34_SE USA_R34_SW USA_R34_NW USA_R50_NE USA_R50_SE USA_R50_SW USA_R50_NW USA_R64_NE USA_R64_SE USA_R64_SW USA_R64_NW USA_POCI USA_ROCI USA_RMW USA_EYE TOKYO_LAT TOKYO_LON TOKYO_GRADE TOKYO_WIND TOKYO_PRES TOKYO_R50_DIR TOKYO_R50_LONG TOKYO_R50_SHORT TOKYO_R30_DIR TOKYO_R30_LONG TOKYO_R30_SHORT TOKYO_LAND CMA_LAT CMA_LON CMA_CAT CMA_WIND CMA_PRES HKO_LAT HKO_LON HKO_CAT HKO_WIND HKO_PRES NEWDELHI_LAT NEWDELHI_LON NEWDELHI_GRADE NEWDELHI_WIND NEWDELHI_PRES NEWDELHI_CI NEWDELHI_DP NEWDELHI_POCI REUNION_LAT REUNION_LON REUNION_TYPE REUNION_WIND REUNION_PRES REUNION_TNUM REUNION_CI REUNION_RMW REUNION_R34_NE REUNION_R34_SE REUNION_R34_SW REUNION_R34_NW REUNION_R50_NE REUNION_R50_SE REUNION_R50_SW REUNION_R50_NW REUNION_R64_NE REUNION_R64_SE REUNION_R64_SW REUNION_R64_NW BOM_LAT BOM_LON BOM_TYPE BOM_WIND BOM_PRES BOM_TNUM BOM_CI BOM_RMW BOM_R34_NE BOM_R34_SE BOM_R34_SW BOM_R34_NW BOM_R50_NE BOM_R50_SE BOM_R50_SW BOM_R50_NW BOM_R64_NE BOM_R64_SE BOM_R64_SW BOM_R64_NW BOM_ROCI BOM_POCI BOM_EYE BOM_POS_METHOD BOM_PRES_METHOD NADI_LAT NADI_LON NADI_CAT NADI_WIND NADI_PRES WELLINGTON_LAT WELLINGTON_LON WELLINGTON_WIND WELLINGTON_PRES DS824_LAT DS824_LON DS824_STAGE DS824_WIND DS824_PRES TD9636_LAT TD9636_LON TD9636_STAGE TD9636_WIND TD9636_PRES TD9635_LAT TD9635_LON TD9635_WIND TD9635_PRES TD9635_ROCI NEUMANN_LAT NEUMANN_LON NEUMANN_CLASS NEUMANN_WIND NEUMANN_PRES MLC_LAT MLC_LON MLC_CLASS MLC_WIND MLC_PRES USA_GUST BOM_GUST BOM_GUST_PER REUNION_GUST REUNION_GUST_PER USA_SEAHGT USA_SEARAD_NE USA_SEARAD_SE USA_SEARAD_SW USA_SEARAD_NW STORM_SPEED STORM_DIR
1901257N20132 1901 31 WP MM NOT_NAMED 1901-09-13 16:00:00 NR 20.4000 132.300 main 1072 1061 __________O___ -1 20.4000 132.300 7 2 297
1901257N20132 1901 31 WP MM NOT_NAMED 1901-09-13 18:00:00 NR 20.4355 132.228 main 1061 1053 __________P___ -1 20.4355 132.228 7 2 297
1901257N20132 1901 31 WP MM NOT_NAMED 1901-09-13 21:00:00 NR 20.4880 132.115 main 1053 1043 __________P___ -1 20.4880 132.115 7 2 295
1901257N20132 1901 31 WP MM NOT_NAMED 1901-09-14 00:00:00 NR 20.5383 131.991 main 1043 1035 __________P___ -1 20.5383 131.991 7 3 292
1901257N20132 1901 31 WP MM NOT_NAMED 1901-09-14 03:00:00 NR 20.5853 131.851 main 1035 1025 __________P___ -1 20.5853 131.851 7 3 289
1901257N20132 1901 31 WP MM NOT_NAMED 1901-09-14 04:00:00 NR 20.6000 131.800 main 1025 1015 __________O___ -1 20.6000 131.800 7 3 286
1901257N20132 1901 31 WP MM NOT_NAMED 1901-09-14 06:00:00 NR 20.6281 131.689 main 1015 997 __________P___ -1 20.6281 131.689 7 3 284
1901257N20132 1901 31 WP MM NOT_NAMED 1901-09-14 09:00:00 NR 20.6700 131.504 main 997 977 __________P___ -1 20.6700 131.504 7 4 284
1901257N20132 1901 31 WP MM NOT_NAMED 1901-09-14 12:00:00 NR 20.7175 131.299 main 977 959 __________P___ -1 20.7175 131.299 7 4 285
1901257N20132 1901 31 WP MM NOT_NAMED 1901-09-14 15:00:00 NR 20.7766 131.077 main 959 949 __________P___ -1 20.7766 131.077 7 4 286
1901257N20132 1901 31 WP MM NOT_NAMED 1901-09-14 16:00:00 NR 20.8000 131.000 main 949 932 __________O___ -1 20.8000 131.000 7 5 290
1901257N20132 1901 31 WP MM NOT_NAMED 1901-09-14 18:00:00 NR 20.8552 130.845 main 932 912 __________P___ -1 20.8552 130.845 7 5 292
1901257N20132 1901 31 WP MM NOT_NAMED 1901-09-14 21:00:00 NR 20.9507 130.599 main 916 889 __________P___ -1 20.9507 130.599 7 5 293
1901257N20132 1901 31 WP MM NOT_NAMED 1901-09-15 00:00:00 NR 21.0558 130.344 main 889 870 __________P___ -1 21.0558 130.344 7 5 294
1901257N20132 1901 31 WP MM NOT_NAMED 1901-09-15 03:00:00 NR 21.1642 130.086 main 873 864 __________P___ -1 21.1642 130.086 7 5 294
1901257N20132 1901 31 WP MM NOT_NAMED 1901-09-15 04:00:00 NR 21.2000 130.000 main 864 848 __________O___ -1 21.2000 130.000 7 5 293
1901257N20132 1901 31 WP MM NOT_NAMED 1901-09-15 06:00:00 NR 21.2612 129.841 main 848 829 __________P___ -1 21.2612 129.841 7 5 292
1901257N20132 1901 31 WP MM NOT_NAMED 1901-09-15 09:00:00 NR 21.3531 129.603 main 833 814 __________P___ -1 21.3531 129.603 7 5 293
1901257N20132 1901 31 WP MM NOT_NAMED 1901-09-15 12:00:00 NR 21.4505 129.357 main 818 790 __________P___ -1 21.4505 129.357 7 5 294
1901257N20132 1901 31 WP MM NOT_NAMED 1901-09-15 15:00:00 NR 21.5598 129.093 main 795 786 __________P___ -1 21.5598 129.093 7 5 294
1901257N20132 1901 31 WP MM NOT_NAMED 1901-09-15 16:00:00 NR 21.6000 129.000 main 786 771 __________O___ -1 21.6000 129.000 3 6 295
1901257N20132 1901 31 WP MM NOT_NAMED 1901-09-15 18:00:00 NR 21.6858 128.808 main 771 738 __________P___ -1 21.6858 128.808 3 6 296
1901257N20132 1901 31 WP MM NOT_NAMED 1901-09-15 21:00:00 NR 21.8272 128.502 main 738 701 __________P___ -1 21.8272 128.502 3 7 297
1901257N20132 1901 31 WP MM NOT_NAMED 1901-09-16 00:00:00 NR 21.9809 128.173 main 701 659 __________P___ -1 21.9809 128.173 3 7 297
1901257N20132 1901 31 WP MM NOT_NAMED 1901-09-16 03:00:00 NR 22.1441 127.822 main 659 645 __________P___ -1 22.1441 127.822 3 7 296
1901257N20132 1901 31 WP MM NOT_NAMED 1901-09-16 04:00:00 NR 22.2000 127.700 main 645 612 __________O___ -1 22.2000 127.700 4 8 295
1901257N20132 1901 31 WP MM NOT_NAMED 1901-09-16 06:00:00 NR 22.3084 127.445 main 612 565 __________P___ -1 22.3084 127.445 4 8 295
1901257N20132 1901 31 WP MM NOT_NAMED 1901-09-16 09:00:00 NR 22.4772 127.044 main 565 519 __________P___ -1 22.4772 127.044 4 8 295
1901257N20132 1901 31 WP MM NOT_NAMED 1901-09-16 12:00:00 NR 22.6534 126.634 main 519 477 __________P___ -1 22.6534 126.634 4 8 296
1901257N20132 1901 31 WP MM NOT_NAMED 1901-09-16 15:00:00 NR 22.8371 126.230 main 477 463 __________P___ -1 22.8371 126.230 4 8 297
1901257N20132 1901 31 WP MM NOT_NAMED 1901-09-16 16:00:00 NR 22.9000 126.100 main 463 440 __________O___ -1 22.9000 126.100 4 8 298
1901257N20132 1901 31 WP MM NOT_NAMED 1901-09-16 18:00:00 NR 23.0168 125.860 main 440 393 __________P___ -1 23.0168 125.860 4 7 299
1901257N20132 1901 31 WP MM NOT_NAMED 1901-09-16 21:00:00 NR 23.1982 125.513 main 393 356 __________P___ -1 23.1982 125.513 4 7 301
1901257N20132 1901 31 WP MM NOT_NAMED 1901-09-17 00:00:00 NR 23.3957 125.171 main 356 311 __________P___ -1 23.3957 125.171 4 8 303
1901257N20132 1901 31 WP MM NOT_NAMED 1901-09-17 03:00:00 NR 23.6185 124.821 main 311 297 __________P___ -1 23.6185 124.821 4 8 305
1901257N20132 1901 31 WP MM NOT_NAMED 1901-09-17 04:00:00 NR 23.7000 124.700 main 297 262 __________O___ -1 23.7000 124.700 4 9 304
1901257N20132 1901 31 WP MM NOT_NAMED 1901-09-17 06:00:00 NR 23.8616 124.429 main 262 217 __________P___ -1 23.8616 124.429 4 9 304
1901257N20132 1901 31 WP MM NOT_NAMED 1901-09-17 09:00:00 NR 24.1289 124.010 main 217 172 __________P___ -1 24.1289 124.010 4 10 307
1901257N20132 1901 31 WP MM NOT_NAMED 1901-09-17 12:00:00 NR 24.4313 123.597 main 172 122 __________P___ -1 24.4313 123.597 4 10 312
1901257N20132 1901 31 WP MM NOT_NAMED 1901-09-17 15:00:00 NR 24.7751 123.216 main 122 111 __________P___ -1 24.7751 123.216 4 10 316
1901257N20132 1901 31 WP MM NOT_NAMED 1901-09-17 16:00:00 NR 24.9000 123.100 main 111 91 __________O___ -1 24.9000 123.100 4 10 323
1901257N20132 1901 31 WP MM NOT_NAMED 1901-09-17 18:00:00 NR 25.1658 122.889 main 93 82 __________P___ -1 25.1658 122.889 4 10 328
1901257N20132 1901 31 WP MM NOT_NAMED 1901-09-17 21:00:00 NR 25.5984 122.617 main 90 90 __________P___ -1 25.5984 122.617 4 10 333
1901257N20132 1901 31 WP MM NOT_NAMED 1901-09-18 00:00:00 NR 26.0603 122.383 main 128 122 __________P___ -1 26.0603 122.383 4 10 337
1901257N20132 1901 31 WP MM NOT_NAMED 1901-09-18 03:00:00 NR 26.5389 122.169 main 157 164 __________P___ -1 26.5389 122.169 4 10 338
1901257N20132 1901 31 WP MM NOT_NAMED 1901-09-18 04:00:00 NR 26.7000 122.100 main 164 __________O___ -1 26.7000 122.100 4 10 339

デジタル台風データ・検索

IBTrACS Databaseについて

本データベースは、米国NOAAが公開する1842年以降の世界の熱帯低気圧のベストトラックデータアーカイブInternational Best Track Archive for Climate Stewardship (IBTrACS)を、ウェブで閲覧しやすい形式に変換したものです。

最終更新日:2021-12-01